Overview Statistics Trail Chart Weather Telemetry Raw packets
 

This is the latest recevied weather packets stored in our database for station/object IV3CGM-13. If no packets are shown the sender has not sent any weather packets the latest 10 day(s).

<< 2 3 4 5 6 7 8 >>
Time Temp. Humidity Pressure Rain* Wind** Luminosity Snow
1788510373 26.67° C 55% 1020.1 hPa 0 mm - 508 W/m² -
1788509685 26.67° C 52% 1019.9 hPa 0 mm - 502 W/m² -
1788508985 26.67° C 53% 1019.8 hPa 0 mm - 472 W/m² -
1788508298 26.11° C 54% 1019.9 hPa 0 mm - 449 W/m² -
1788507611 26.11° C 57% 1019.9 hPa 0 mm - 401 W/m² -
1788506885 26.67° C 54% 1019.7 hPa 0 mm - 318 W/m² -
1788506198 26.67° C 58% 1019.8 hPa 0 mm - 333 W/m² -
1788505510 25.56° C 61% 1019.7 hPa 0 mm - 239 W/m² -
1788504822 23.89° C 71% 1019.7 hPa 0 mm - 241 W/m² -
1788504085 23.33° C 73% 1019.7 hPa 0 mm - 206 W/m² -
1788503384 23.33° C 71% 1019.6 hPa 0 mm - 128 W/m² -
1788502698 22.78° C 72% 1019.6 hPa 0 mm - 135 W/m² -
1788502010 22.78° C 72% 1019.5 hPa 0 mm - 54 W/m² -
1788501321 21.67° C 71% 1019.6 hPa 0 mm - 47 W/m² -
1788500585 21.67° C 70% 1019.5 hPa 0 mm - 60 W/m² -
1788499884 21.11° C 71% 1019.4 hPa 0 mm - 42 W/m² -
1788499197 21.11° C 71% 1019.2 hPa 0 mm - 34 W/m² -
1788498510 21.67° C 67% 1019.2 hPa 0 mm - 26 W/m² -
1788497822 21.67° C 65% 1019.2 hPa 0 mm - 17 W/m² -
1788497085 21.67° C 66% 1019.1 hPa 0 mm - 9 W/m² -
1788496384 21.67° C 66% 1018.8 hPa 0 mm - 3 W/m² -
1788495696 22.22° C 65% 1018.7 hPa 0 mm - 1 W/m² -
1788495009 22.22° C 64% 1018.8 hPa 0 mm - 0 W/m² -
1788494321 23.33° C 60% 1018.9 hPa 0 mm - 0 W/m² -
1788493584 22.78° C 61% 1019 hPa 0 mm - 0 W/m² -

* Rain latest hour (hover to see other rain measurements)
** Current wind speed in m/s (hover to see current wind gust speed)